sensor_id;sensor_type;location;lat;lon;timestamp;P1;durP1;ratioP1;P2;durP2;ratioP2
13040;SDS011;6587;42.728;23.288;2023-05-19T00:01:40;17.00;;;9.80;;
13040;SDS011;6587;42.728;23.288;2023-05-19T00:04:08;13.33;;;9.43;;
13040;SDS011;6587;42.728;23.288;2023-05-19T00:06:36;15.40;;;10.43;;
13040;SDS011;6587;42.728;23.288;2023-05-19T00:09:05;14.00;;;9.70;;
13040;SDS011;6587;42.728;23.288;2023-05-19T00:11:32;13.80;;;10.03;;
13040;SDS011;6587;42.728;23.288;2023-05-19T00:14:00;14.03;;;9.60;;
13040;SDS011;6587;42.728;23.288;2023-05-19T00:16:27;17.83;;;10.87;;
13040;SDS011;6587;42.728;23.288;2023-05-19T00:18:55;16.43;;;11.07;;
13040;SDS011;6587;42.728;23.288;2023-05-19T00:21:24;18.97;;;11.00;;
13040;SDS011;6587;42.728;23.288;2023-05-19T00:23:50;15.43;;;10.00;;
13040;SDS011;6587;42.728;23.288;2023-05-19T00:26:18;15.80;;;11.27;;
13040;SDS011;6587;42.728;23.288;2023-05-19T00:28:53;18.50;;;11.50;;
13040;SDS011;6587;42.728;23.288;2023-05-19T00:31:20;14.33;;;10.40;;
13040;SDS011;6587;42.728;23.288;2023-05-19T00:33:47;15.17;;;11.10;;
13040;SDS011;6587;42.728;23.288;2023-05-19T00:36:13;16.20;;;11.00;;
13040;SDS011;6587;42.728;23.288;2023-05-19T00:38:40;18.27;;;11.77;;
13040;SDS011;6587;42.728;23.288;2023-05-19T00:41:07;17.03;;;11.07;;
13040;SDS011;6587;42.728;23.288;2023-05-19T00:43:35;17.87;;;11.23;;
13040;SDS011;6587;42.728;23.288;2023-05-19T00:46:01;16.23;;;10.80;;
13040;SDS011;6587;42.728;23.288;2023-05-19T00:48:28;15.17;;;10.57;;
13040;SDS011;6587;42.728;23.288;2023-05-19T00:50:55;16.40;;;10.50;;
13040;SDS011;6587;42.728;23.288;2023-05-19T00:53:26;17.57;;;10.27;;
13040;SDS011;6587;42.728;23.288;2023-05-19T00:55:53;16.47;;;11.10;;
13040;SDS011;6587;42.728;23.288;2023-05-19T00:58:19;14.53;;;10.70;;
13040;SDS011;6587;42.728;23.288;2023-05-19T01:00:50;15.83;;;11.07;;
13040;SDS011;6587;42.728;23.288;2023-05-19T01:03:16;17.23;;;11.17;;
13040;SDS011;6587;42.728;23.288;2023-05-19T01:05:44;18.97;;;11.50;;
13040;SDS011;6587;42.728;23.288;2023-05-19T01:08:11;19.80;;;11.60;;
13040;SDS011;6587;42.728;23.288;2023-05-19T01:10:39;17.20;;;11.17;;
13040;SDS011;6587;42.728;23.288;2023-05-19T01:13:06;17.20;;;11.43;;
13040;SDS011;6587;42.728;23.288;2023-05-19T01:15:35;18.10;;;10.97;;
13040;SDS011;6587;42.728;23.288;2023-05-19T01:18:07;17.33;;;11.07;;
13040;SDS011;6587;42.728;23.288;2023-05-19T01:20:37;16.90;;;11.50;;
13040;SDS011;6587;42.728;23.288;2023-05-19T01:25:54;21.43;;;12.87;;
13040;SDS011;6587;42.728;23.288;2023-05-19T01:31:15;19.40;;;12.53;;
13040;SDS011;6587;42.728;23.288;2023-05-19T01:33:42;19.63;;;12.57;;
13040;SDS011;6587;42.728;23.288;2023-05-19T01:36:09;21.53;;;12.70;;
13040;SDS011;6587;42.728;23.288;2023-05-19T01:38:37;18.57;;;12.17;;
13040;SDS011;6587;42.728;23.288;2023-05-19T01:41:04;19.27;;;12.10;;
13040;SDS011;6587;42.728;23.288;2023-05-19T01:43:33;20.57;;;12.20;;
13040;SDS011;6587;42.728;23.288;2023-05-19T01:46:00;19.33;;;11.87;;
13040;SDS011;6587;42.728;23.288;2023-05-19T01:48:28;17.53;;;11.53;;
13040;SDS011;6587;42.728;23.288;2023-05-19T01:50:56;17.60;;;11.90;;
13040;SDS011;6587;42.728;23.288;2023-05-19T01:53:23;18.17;;;11.47;;
13040;SDS011;6587;42.728;23.288;2023-05-19T01:55:50;16.37;;;11.07;;
13040;SDS011;6587;42.728;23.288;2023-05-19T01:58:20;17.33;;;11.60;;
13040;SDS011;6587;42.728;23.288;2023-05-19T02:00:51;18.03;;;11.97;;
13040;SDS011;6587;42.728;23.288;2023-05-19T02:03:25;21.07;;;12.10;;
13040;SDS011;6587;42.728;23.288;2023-05-19T02:05:58;18.50;;;11.93;;
13040;SDS011;6587;42.728;23.288;2023-05-19T02:08:29;19.30;;;12.80;;
13040;SDS011;6587;42.728;23.288;2023-05-19T02:11:01;19.17;;;12.57;;
13040;SDS011;6587;42.728;23.288;2023-05-19T02:13:29;20.27;;;12.47;;
13040;SDS011;6587;42.728;23.288;2023-05-19T02:15:56;19.97;;;13.00;;
13040;SDS011;6587;42.728;23.288;2023-05-19T02:18:25;21.03;;;13.20;;
13040;SDS011;6587;42.728;23.288;2023-05-19T02:20:54;22.27;;;12.90;;
13040;SDS011;6587;42.728;23.288;2023-05-19T02:23:24;22.70;;;12.90;;
13040;SDS011;6587;42.728;23.288;2023-05-19T02:25:50;22.73;;;13.53;;
13040;SDS011;6587;42.728;23.288;2023-05-19T02:28:17;22.23;;;13.37;;
13040;SDS011;6587;42.728;23.288;2023-05-19T02:30:44;24.43;;;14.30;;
13040;SDS011;6587;42.728;23.288;2023-05-19T02:33:10;24.47;;;13.67;;
13040;SDS011;6587;42.728;23.288;2023-05-19T02:35:37;25.90;;;14.47;;
13040;SDS011;6587;42.728;23.288;2023-05-19T02:38:04;23.50;;;14.93;;
13040;SDS011;6587;42.728;23.288;2023-05-19T02:40:32;21.20;;;14.97;;
13040;SDS011;6587;42.728;23.288;2023-05-19T02:42:59;23.47;;;13.93;;
13040;SDS011;6587;42.728;23.288;2023-05-19T02:45:27;22.87;;;14.80;;
13040;SDS011;6587;42.728;23.288;2023-05-19T02:47:54;25.17;;;14.60;;
13040;SDS011;6587;42.728;23.288;2023-05-19T02:50:21;22.97;;;13.83;;
13040;SDS011;6587;42.728;23.288;2023-05-19T02:52:48;22.90;;;15.07;;
13040;SDS011;6587;42.728;23.288;2023-05-19T02:55:14;23.60;;;14.33;;
13040;SDS011;6587;42.728;23.288;2023-05-19T02:57:43;22.57;;;13.73;;
13040;SDS011;6587;42.728;23.288;2023-05-19T03:00:10;22.70;;;13.90;;
13040;SDS011;6587;42.728;23.288;2023-05-19T03:02:37;22.70;;;14.30;;
13040;SDS011;6587;42.728;23.288;2023-05-19T03:05:06;25.93;;;13.17;;
13040;SDS011;6587;42.728;23.288;2023-05-19T03:07:32;24.00;;;14.63;;
13040;SDS011;6587;42.728;23.288;2023-05-19T03:09:59;25.27;;;14.57;;
13040;SDS011;6587;42.728;23.288;2023-05-19T03:12:28;23.13;;;13.43;;
13040;SDS011;6587;42.728;23.288;2023-05-19T03:14:56;26.20;;;14.97;;
13040;SDS011;6587;42.728;23.288;2023-05-19T03:17:22;25.80;;;14.20;;
13040;SDS011;6587;42.728;23.288;2023-05-19T03:19:49;25.23;;;14.87;;
13040;SDS011;6587;42.728;23.288;2023-05-19T03:22:16;23.20;;;14.57;;
13040;SDS011;6587;42.728;23.288;2023-05-19T03:24:45;22.53;;;14.50;;
13040;SDS011;6587;42.728;23.288;2023-05-19T03:27:12;24.97;;;13.63;;
13040;SDS011;6587;42.728;23.288;2023-05-19T03:29:38;24.43;;;14.70;;
13040;SDS011;6587;42.728;23.288;2023-05-19T03:32:06;21.90;;;14.27;;
13040;SDS011;6587;42.728;23.288;2023-05-19T03:34:35;22.37;;;14.80;;
13040;SDS011;6587;42.728;23.288;2023-05-19T03:37:01;27.10;;;15.03;;
13040;SDS011;6587;42.728;23.288;2023-05-19T03:39:28;24.57;;;15.50;;
13040;SDS011;6587;42.728;23.288;2023-05-19T03:41:56;24.53;;;15.13;;
13040;SDS011;6587;42.728;23.288;2023-05-19T03:44:22;23.00;;;14.30;;
13040;SDS011;6587;42.728;23.288;2023-05-19T03:46:49;22.60;;;14.50;;
13040;SDS011;6587;42.728;23.288;2023-05-19T03:49:36;25.90;;;14.87;;
13040;SDS011;6587;42.728;23.288;2023-05-19T03:52:03;21.67;;;14.83;;
13040;SDS011;6587;42.728;23.288;2023-05-19T03:54:45;24.03;;;13.53;;
13040;SDS011;6587;42.728;23.288;2023-05-19T03:57:12;24.57;;;14.77;;
13040;SDS011;6587;42.728;23.288;2023-05-19T03:59:39;21.93;;;13.00;;
13040;SDS011;6587;42.728;23.288;2023-05-19T04:02:06;25.83;;;15.33;;
13040;SDS011;6587;42.728;23.288;2023-05-19T04:04:33;22.03;;;13.30;;
13040;SDS011;6587;42.728;23.288;2023-05-19T04:07:01;23.27;;;14.50;;
13040;SDS011;6587;42.728;23.288;2023-05-19T04:09:27;21.60;;;13.40;;
13040;SDS011;6587;42.728;23.288;2023-05-19T04:11:56;22.17;;;13.33;;
13040;SDS011;6587;42.728;23.288;2023-05-19T04:14:23;23.50;;;13.93;;
13040;SDS011;6587;42.728;23.288;2023-05-19T04:16:49;25.63;;;14.13;;
13040;SDS011;6587;42.728;23.288;2023-05-19T04:19:16;21.60;;;13.90;;
13040;SDS011;6587;42.728;23.288;2023-05-19T04:21:43;19.73;;;13.40;;
13040;SDS011;6587;42.728;23.288;2023-05-19T04:24:11;20.80;;;13.13;;
13040;SDS011;6587;42.728;23.288;2023-05-19T04:26:37;22.73;;;13.47;;
13040;SDS011;6587;42.728;23.288;2023-05-19T04:29:06;22.97;;;13.37;;
13040;SDS011;6587;42.728;23.288;2023-05-19T04:31:35;23.27;;;13.50;;
13040;SDS011;6587;42.728;23.288;2023-05-19T04:34:04;22.83;;;12.83;;
13040;SDS011;6587;42.728;23.288;2023-05-19T04:36:32;21.30;;;13.27;;
13040;SDS011;6587;42.728;23.288;2023-05-19T04:39:00;23.67;;;13.93;;
13040;SDS011;6587;42.728;23.288;2023-05-19T04:41:35;20.97;;;13.43;;
13040;SDS011;6587;42.728;23.288;2023-05-19T04:44:04;22.97;;;13.40;;
13040;SDS011;6587;42.728;23.288;2023-05-19T04:46:32;24.13;;;13.80;;
13040;SDS011;6587;42.728;23.288;2023-05-19T04:48:59;22.37;;;12.77;;
13040;SDS011;6587;42.728;23.288;2023-05-19T04:51:26;21.60;;;12.97;;
13040;SDS011;6587;42.728;23.288;2023-05-19T04:53:56;21.80;;;12.17;;
13040;SDS011;6587;42.728;23.288;2023-05-19T04:56:24;23.50;;;12.73;;
13040;SDS011;6587;42.728;23.288;2023-05-19T04:58:53;22.70;;;13.17;;
13040;SDS011;6587;42.728;23.288;2023-05-19T05:01:20;19.27;;;12.57;;
13040;SDS011;6587;42.728;23.288;2023-05-19T05:03:51;21.13;;;13.73;;
13040;SDS011;6587;42.728;23.288;2023-05-19T05:06:19;21.33;;;12.73;;
13040;SDS011;6587;42.728;23.288;2023-05-19T05:08:47;21.07;;;12.37;;
13040;SDS011;6587;42.728;23.288;2023-05-19T05:11:13;23.40;;;13.17;;
13040;SDS011;6587;42.728;23.288;2023-05-19T05:13:41;19.13;;;13.03;;
13040;SDS011;6587;42.728;23.288;2023-05-19T05:16:10;21.13;;;13.07;;
13040;SDS011;6587;42.728;23.288;2023-05-19T05:18:37;19.63;;;12.40;;
13040;SDS011;6587;42.728;23.288;2023-05-19T05:21:05;18.20;;;11.97;;
13040;SDS011;6587;42.728;23.288;2023-05-19T05:23:33;17.27;;;10.93;;
13040;SDS011;6587;42.728;23.288;2023-05-19T05:26:02;20.33;;;11.13;;
13040;SDS011;6587;42.728;23.288;2023-05-19T05:28:32;16.67;;;11.33;;
13040;SDS011;6587;42.728;23.288;2023-05-19T05:30:58;17.43;;;11.70;;
13040;SDS011;6587;42.728;23.288;2023-05-19T05:33:26;19.47;;;11.37;;
13040;SDS011;6587;42.728;23.288;2023-05-19T05:35:53;19.80;;;11.47;;
13040;SDS011;6587;42.728;23.288;2023-05-19T05:38:20;16.60;;;11.43;;
13040;SDS011;6587;42.728;23.288;2023-05-19T05:40:47;19.63;;;11.60;;
13040;SDS011;6587;42.728;23.288;2023-05-19T05:43:13;19.37;;;12.10;;
13040;SDS011;6587;42.728;23.288;2023-05-19T05:45:46;20.37;;;12.50;;
13040;SDS011;6587;42.728;23.288;2023-05-19T05:48:12;18.00;;;11.07;;
13040;SDS011;6587;42.728;23.288;2023-05-19T05:50:41;17.17;;;11.27;;
13040;SDS011;6587;42.728;23.288;2023-05-19T05:53:08;16.33;;;10.63;;
13040;SDS011;6587;42.728;23.288;2023-05-19T05:55:38;17.93;;;10.77;;
13040;SDS011;6587;42.728;23.288;2023-05-19T05:58:06;17.03;;;11.60;;
13040;SDS011;6587;42.728;23.288;2023-05-19T06:00:35;22.73;;;11.57;;
13040;SDS011;6587;42.728;23.288;2023-05-19T06:03:02;16.87;;;11.13;;
13040;SDS011;6587;42.728;23.288;2023-05-19T06:05:30;15.80;;;10.37;;
13040;SDS011;6587;42.728;23.288;2023-05-19T06:07:58;21.67;;;11.40;;
13040;SDS011;6587;42.728;23.288;2023-05-19T06:10:26;15.23;;;10.20;;
13040;SDS011;6587;42.728;23.288;2023-05-19T06:12:54;13.10;;;9.17;;
13040;SDS011;6587;42.728;23.288;2023-05-19T06:15:21;12.87;;;9.10;;
13040;SDS011;6587;42.728;23.288;2023-05-19T06:17:54;13.13;;;9.40;;
13040;SDS011;6587;42.728;23.288;2023-05-19T06:20:21;18.23;;;10.23;;
13040;SDS011;6587;42.728;23.288;2023-05-19T06:22:48;19.50;;;10.23;;
13040;SDS011;6587;42.728;23.288;2023-05-19T06:25:18;17.17;;;10.80;;
13040;SDS011;6587;42.728;23.288;2023-05-19T06:27:46;15.97;;;9.77;;
13040;SDS011;6587;42.728;23.288;2023-05-19T06:30:14;13.53;;;10.40;;
13040;SDS011;6587;42.728;23.288;2023-05-19T06:32:58;15.83;;;10.17;;
13040;SDS011;6587;42.728;23.288;2023-05-19T06:35:26;17.17;;;10.00;;
13040;SDS011;6587;42.728;23.288;2023-05-19T06:37:52;14.57;;;9.17;;
13040;SDS011;6587;42.728;23.288;2023-05-19T06:40:21;16.60;;;9.87;;
13040;SDS011;6587;42.728;23.288;2023-05-19T06:42:48;13.77;;;9.23;;
13040;SDS011;6587;42.728;23.288;2023-05-19T06:45:34;14.27;;;9.83;;
13040;SDS011;6587;42.728;23.288;2023-05-19T06:48:03;13.60;;;9.50;;
13040;SDS011;6587;42.728;23.288;2023-05-19T06:50:29;13.90;;;9.23;;
13040;SDS011;6587;42.728;23.288;2023-05-19T06:52:56;15.73;;;10.30;;
13040;SDS011;6587;42.728;23.288;2023-05-19T06:55:24;15.00;;;9.67;;
13040;SDS011;6587;42.728;23.288;2023-05-19T06:57:51;13.40;;;9.20;;
13040;SDS011;6587;42.728;23.288;2023-05-19T07:00:18;13.77;;;9.40;;
13040;SDS011;6587;42.728;23.288;2023-05-19T07:02:47;13.87;;;9.13;;
13040;SDS011;6587;42.728;23.288;2023-05-19T07:05:13;14.20;;;9.30;;
13040;SDS011;6587;42.728;23.288;2023-05-19T07:07:43;14.27;;;8.23;;
13040;SDS011;6587;42.728;23.288;2023-05-19T07:10:12;15.37;;;9.57;;
13040;SDS011;6587;42.728;23.288;2023-05-19T07:12:40;12.87;;;8.83;;
13040;SDS011;6587;42.728;23.288;2023-05-19T07:15:08;12.00;;;7.83;;
13040;SDS011;6587;42.728;23.288;2023-05-19T07:17:35;13.10;;;8.30;;
13040;SDS011;6587;42.728;23.288;2023-05-19T07:20:02;12.27;;;8.20;;
13040;SDS011;6587;42.728;23.288;2023-05-19T07:22:31;11.37;;;7.93;;
13040;SDS011;6587;42.728;23.288;2023-05-19T07:24:59;12.53;;;8.10;;
13040;SDS011;6587;42.728;23.288;2023-05-19T07:27:27;8.77;;;7.13;;
13040;SDS011;6587;42.728;23.288;2023-05-19T07:29:55;14.80;;;7.87;;
13040;SDS011;6587;42.728;23.288;2023-05-19T07:32:21;10.83;;;7.23;;
13040;SDS011;6587;42.728;23.288;2023-05-19T07:34:48;11.27;;;7.90;;
13040;SDS011;6587;42.728;23.288;2023-05-19T07:37:14;10.30;;;7.53;;
13040;SDS011;6587;42.728;23.288;2023-05-19T07:39:41;12.67;;;8.00;;
13040;SDS011;6587;42.728;23.288;2023-05-19T07:42:08;11.50;;;7.80;;
13040;SDS011;6587;42.728;23.288;2023-05-19T07:44:34;11.63;;;7.80;;
13040;SDS011;6587;42.728;23.288;2023-05-19T07:47:02;11.00;;;7.93;;
13040;SDS011;6587;42.728;23.288;2023-05-19T07:49:29;12.03;;;7.53;;
13040;SDS011;6587;42.728;23.288;2023-05-19T07:51:56;10.13;;;7.37;;
13040;SDS011;6587;42.728;23.288;2023-05-19T07:54:22;11.43;;;7.97;;
13040;SDS011;6587;42.728;23.288;2023-05-19T07:56:49;10.30;;;7.50;;
13040;SDS011;6587;42.728;23.288;2023-05-19T07:59:15;11.73;;;7.60;;
13040;SDS011;6587;42.728;23.288;2023-05-19T08:01:42;9.03;;;7.50;;
13040;SDS011;6587;42.728;23.288;2023-05-19T08:04:10;11.30;;;7.93;;
13040;SDS011;6587;42.728;23.288;2023-05-19T08:06:37;11.00;;;7.73;;
13040;SDS011;6587;42.728;23.288;2023-05-19T08:09:04;11.10;;;7.60;;
13040;SDS011;6587;42.728;23.288;2023-05-19T08:11:31;9.90;;;7.57;;
13040;SDS011;6587;42.728;23.288;2023-05-19T08:13:57;14.23;;;7.83;;
13040;SDS011;6587;42.728;23.288;2023-05-19T08:16:24;11.60;;;8.17;;
13040;SDS011;6587;42.728;23.288;2023-05-19T08:18:50;11.93;;;8.17;;
13040;SDS011;6587;42.728;23.288;2023-05-19T08:21:18;12.17;;;8.00;;
13040;SDS011;6587;42.728;23.288;2023-05-19T08:23:45;10.87;;;8.23;;
13040;SDS011;6587;42.728;23.288;2023-05-19T08:26:12;11.23;;;8.00;;
13040;SDS011;6587;42.728;23.288;2023-05-19T08:28:38;11.67;;;8.40;;
13040;SDS011;6587;42.728;23.288;2023-05-19T08:31:05;10.77;;;8.30;;
13040;SDS011;6587;42.728;23.288;2023-05-19T08:33:32;10.17;;;8.13;;
13040;SDS011;6587;42.728;23.288;2023-05-19T08:35:58;14.53;;;9.30;;
13040;SDS011;6587;42.728;23.288;2023-05-19T08:38:27;13.97;;;8.60;;
13040;SDS011;6587;42.728;23.288;2023-05-19T08:40:53;13.07;;;8.83;;
13040;SDS011;6587;42.728;23.288;2023-05-19T08:43:22;12.53;;;9.27;;
13040;SDS011;6587;42.728;23.288;2023-05-19T08:45:48;12.67;;;8.53;;
13040;SDS011;6587;42.728;23.288;2023-05-19T08:48:18;13.53;;;8.97;;
13040;SDS011;6587;42.728;23.288;2023-05-19T08:50:45;12.70;;;8.77;;
13040;SDS011;6587;42.728;23.288;2023-05-19T08:53:18;13.37;;;8.93;;
13040;SDS011;6587;42.728;23.288;2023-05-19T08:55:49;12.20;;;8.87;;
13040;SDS011;6587;42.728;23.288;2023-05-19T08:58:19;11.13;;;8.63;;
13040;SDS011;6587;42.728;23.288;2023-05-19T09:00:46;15.63;;;9.07;;
13040;SDS011;6587;42.728;23.288;2023-05-19T09:03:14;13.70;;;9.20;;
13040;SDS011;6587;42.728;23.288;2023-05-19T09:05:41;12.53;;;9.23;;
13040;SDS011;6587;42.728;23.288;2023-05-19T09:08:08;11.87;;;8.60;;
13040;SDS011;6587;42.728;23.288;2023-05-19T09:10:34;12.27;;;9.27;;
13040;SDS011;6587;42.728;23.288;2023-05-19T09:13:02;14.23;;;9.33;;
13040;SDS011;6587;42.728;23.288;2023-05-19T09:15:30;12.07;;;9.53;;
13040;SDS011;6587;42.728;23.288;2023-05-19T09:18:07;16.50;;;10.40;;
13040;SDS011;6587;42.728;23.288;2023-05-19T09:20:38;14.90;;;10.10;;
13040;SDS011;6587;42.728;23.288;2023-05-19T09:23:04;12.77;;;9.13;;
13040;SDS011;6587;42.728;23.288;2023-05-19T09:25:32;14.93;;;9.53;;
13040;SDS011;6587;42.728;23.288;2023-05-19T09:27:58;12.97;;;9.87;;
13040;SDS011;6587;42.728;23.288;2023-05-19T09:30:26;11.63;;;8.83;;
13040;SDS011;6587;42.728;23.288;2023-05-19T09:32:53;16.93;;;10.00;;
13040;SDS011;6587;42.728;23.288;2023-05-19T09:35:20;13.60;;;9.10;;
13040;SDS011;6587;42.728;23.288;2023-05-19T09:37:46;15.07;;;9.57;;
13040;SDS011;6587;42.728;23.288;2023-05-19T09:40:14;11.87;;;9.40;;
13040;SDS011;6587;42.728;23.288;2023-05-19T09:42:41;10.87;;;9.50;;
13040;SDS011;6587;42.728;23.288;2023-05-19T09:45:08;12.10;;;9.73;;
13040;SDS011;6587;42.728;23.288;2023-05-19T09:47:37;12.70;;;9.55;;
13040;SDS011;6587;42.728;23.288;2023-05-19T09:50:04;13.23;;;9.27;;
13040;SDS011;6587;42.728;23.288;2023-05-19T09:52:35;13.82;;;9.80;;
13040;SDS011;6587;42.728;23.288;2023-05-19T09:55:03;15.95;;;10.82;;
13040;SDS011;6587;42.728;23.288;2023-05-19T09:57:33;12.77;;;9.85;;
13040;SDS011;6587;42.728;23.288;2023-05-19T10:00:02;13.98;;;10.00;;
13040;SDS011;6587;42.728;23.288;2023-05-19T10:02:36;18.40;;;10.23;;
13040;SDS011;6587;42.728;23.288;2023-05-19T10:05:06;11.55;;;9.20;;
13040;SDS011;6587;42.728;23.288;2023-05-19T10:07:33;14.82;;;10.93;;
13040;SDS011;6587;42.728;23.288;2023-05-19T10:10:00;17.85;;;10.38;;
13040;SDS011;6587;42.728;23.288;2023-05-19T10:12:27;14.40;;;9.85;;
13040;SDS011;6587;42.728;23.288;2023-05-19T10:14:54;14.02;;;10.07;;
13040;SDS011;6587;42.728;23.288;2023-05-19T10:17:21;15.32;;;9.75;;
13040;SDS011;6587;42.728;23.288;2023-05-19T10:19:49;20.85;;;10.73;;
13040;SDS011;6587;42.728;23.288;2023-05-19T10:22:15;19.23;;;10.35;;
13040;SDS011;6587;42.728;23.288;2023-05-19T10:24:42;13.93;;;10.27;;
13040;SDS011;6587;42.728;23.288;2023-05-19T10:27:09;13.68;;;9.05;;
13040;SDS011;6587;42.728;23.288;2023-05-19T10:29:38;12.30;;;9.73;;
13040;SDS011;6587;42.728;23.288;2023-05-19T10:32:08;17.13;;;9.85;;
13040;SDS011;6587;42.728;23.288;2023-05-19T10:34:45;17.02;;;10.73;;
13040;SDS011;6587;42.728;23.288;2023-05-19T10:37:19;14.25;;;10.20;;
13040;SDS011;6587;42.728;23.288;2023-05-19T10:39:51;13.90;;;9.98;;
13040;SDS011;6587;42.728;23.288;2023-05-19T10:42:23;14.77;;;10.50;;
13040;SDS011;6587;42.728;23.288;2023-05-19T10:44:52;16.45;;;9.93;;
13040;SDS011;6587;42.728;23.288;2023-05-19T10:47:23;16.13;;;10.23;;
13040;SDS011;6587;42.728;23.288;2023-05-19T10:49:51;16.15;;;10.20;;
13040;SDS011;6587;42.728;23.288;2023-05-19T10:52:19;18.17;;;9.97;;
13040;SDS011;6587;42.728;23.288;2023-05-19T10:54:47;17.45;;;9.77;;
13040;SDS011;6587;42.728;23.288;2023-05-19T10:57:14;12.70;;;9.40;;
13040;SDS011;6587;42.728;23.288;2023-05-19T10:59:41;13.52;;;9.10;;
13040;SDS011;6587;42.728;23.288;2023-05-19T11:02:09;13.82;;;8.95;;
13040;SDS011;6587;42.728;23.288;2023-05-19T11:04:39;12.70;;;9.02;;
13040;SDS011;6587;42.728;23.288;2023-05-19T11:07:14;12.98;;;9.98;;
13040;SDS011;6587;42.728;23.288;2023-05-19T11:09:42;14.63;;;10.43;;
13040;SDS011;6587;42.728;23.288;2023-05-19T11:12:09;16.40;;;10.63;;
13040;SDS011;6587;42.728;23.288;2023-05-19T11:14:36;16.80;;;10.68;;
13040;SDS011;6587;42.728;23.288;2023-05-19T11:17:04;21.17;;;11.85;;
13040;SDS011;6587;42.728;23.288;2023-05-19T11:19:38;15.20;;;10.60;;
13040;SDS011;6587;42.728;23.288;2023-05-19T11:22:10;13.98;;;9.88;;
13040;SDS011;6587;42.728;23.288;2023-05-19T11:24:37;13.18;;;9.80;;
13040;SDS011;6587;42.728;23.288;2023-05-19T11:29:50;13.10;;;9.30;;
13040;SDS011;6587;42.728;23.288;2023-05-19T11:32:18;13.82;;;9.45;;
13040;SDS011;6587;42.728;23.288;2023-05-19T11:34:45;12.88;;;9.13;;
13040;SDS011;6587;42.728;23.288;2023-05-19T11:37:13;11.43;;;9.35;;
13040;SDS011;6587;42.728;23.288;2023-05-19T11:39:39;13.13;;;9.27;;
13040;SDS011;6587;42.728;23.288;2023-05-19T11:42:07;13.40;;;9.25;;
13040;SDS011;6587;42.728;23.288;2023-05-19T11:44:34;17.27;;;9.73;;
13040;SDS011;6587;42.728;23.288;2023-05-19T11:47:02;15.23;;;9.48;;
13040;SDS011;6587;42.728;23.288;2023-05-19T11:49:28;12.18;;;8.93;;
13040;SDS011;6587;42.728;23.288;2023-05-19T11:51:55;18.55;;;10.23;;
13040;SDS011;6587;42.728;23.288;2023-05-19T11:54:27;14.67;;;10.43;;
13040;SDS011;6587;42.728;23.288;2023-05-19T11:56:54;10.95;;;8.23;;
13040;SDS011;6587;42.728;23.288;2023-05-19T11:59:27;13.90;;;9.37;;
13040;SDS011;6587;42.728;23.288;2023-05-19T12:01:54;10.90;;;8.90;;
13040;SDS011;6587;42.728;23.288;2023-05-19T12:04:22;13.33;;;8.97;;
13040;SDS011;6587;42.728;23.288;2023-05-19T12:06:48;16.17;;;9.53;;
13040;SDS011;6587;42.728;23.288;2023-05-19T12:09:17;13.47;;;8.70;;
13040;SDS011;6587;42.728;23.288;2023-05-19T12:11:43;13.67;;;8.90;;
13040;SDS011;6587;42.728;23.288;2023-05-19T12:14:10;13.30;;;9.37;;
13040;SDS011;6587;42.728;23.288;2023-05-19T12:16:37;13.40;;;8.70;;
13040;SDS011;6587;42.728;23.288;2023-05-19T12:19:04;13.43;;;8.87;;
13040;SDS011;6587;42.728;23.288;2023-05-19T12:21:32;13.30;;;9.30;;
13040;SDS011;6587;42.728;23.288;2023-05-19T12:23:59;11.27;;;8.17;;
13040;SDS011;6587;42.728;23.288;2023-05-19T12:26:26;11.23;;;7.83;;
13040;SDS011;6587;42.728;23.288;2023-05-19T12:28:52;9.50;;;7.70;;
13040;SDS011;6587;42.728;23.288;2023-05-19T12:31:20;14.17;;;8.17;;
13040;SDS011;6587;42.728;23.288;2023-05-19T12:33:47;11.93;;;8.30;;
13040;SDS011;6587;42.728;23.288;2023-05-19T12:36:16;10.90;;;8.20;;
13040;SDS011;6587;42.728;23.288;2023-05-19T12:38:44;10.63;;;6.73;;
13040;SDS011;6587;42.728;23.288;2023-05-19T12:41:11;12.43;;;7.90;;
13040;SDS011;6587;42.728;23.288;2023-05-19T12:43:39;12.13;;;7.77;;
13040;SDS011;6587;42.728;23.288;2023-05-19T12:46:08;10.70;;;7.90;;
13040;SDS011;6587;42.728;23.288;2023-05-19T12:48:38;14.97;;;8.47;;
13040;SDS011;6587;42.728;23.288;2023-05-19T12:51:05;10.67;;;7.90;;
13040;SDS011;6587;42.728;23.288;2023-05-19T12:53:32;10.37;;;7.70;;
13040;SDS011;6587;42.728;23.288;2023-05-19T12:56:00;11.53;;;8.03;;
13040;SDS011;6587;42.728;23.288;2023-05-19T12:58:27;11.83;;;7.53;;
13040;SDS011;6587;42.728;23.288;2023-05-19T13:00:56;13.00;;;8.13;;
13040;SDS011;6587;42.728;23.288;2023-05-19T13:03:23;8.83;;;6.83;;
13040;SDS011;6587;42.728;23.288;2023-05-19T13:05:50;12.37;;;7.10;;
13040;SDS011;6587;42.728;23.288;2023-05-19T13:08:17;9.77;;;6.50;;
13040;SDS011;6587;42.728;23.288;2023-05-19T13:10:45;10.33;;;7.23;;
13040;SDS011;6587;42.728;23.288;2023-05-19T13:13:13;11.30;;;7.07;;
13040;SDS011;6587;42.728;23.288;2023-05-19T13:15:41;8.87;;;6.53;;
13040;SDS011;6587;42.728;23.288;2023-05-19T13:18:08;8.53;;;7.00;;
13040;SDS011;6587;42.728;23.288;2023-05-19T13:20:35;10.57;;;6.73;;
13040;SDS011;6587;42.728;23.288;2023-05-19T13:23:02;10.13;;;6.93;;
13040;SDS011;6587;42.728;23.288;2023-05-19T13:25:29;9.17;;;6.70;;
13040;SDS011;6587;42.728;23.288;2023-05-19T13:27:55;9.73;;;6.80;;
13040;SDS011;6587;42.728;23.288;2023-05-19T13:30:24;11.00;;;7.10;;
13040;SDS011;6587;42.728;23.288;2023-05-19T13:32:51;9.57;;;6.77;;
13040;SDS011;6587;42.728;23.288;2023-05-19T13:35:18;9.90;;;7.40;;
13040;SDS011;6587;42.728;23.288;2023-05-19T13:37:44;9.83;;;7.13;;
13040;SDS011;6587;42.728;23.288;2023-05-19T13:40:11;9.13;;;6.77;;
13040;SDS011;6587;42.728;23.288;2023-05-19T13:42:39;9.50;;;6.50;;
13040;SDS011;6587;42.728;23.288;2023-05-19T13:45:06;7.13;;;5.93;;
13040;SDS011;6587;42.728;23.288;2023-05-19T13:47:34;9.30;;;6.70;;
13040;SDS011;6587;42.728;23.288;2023-05-19T13:50:01;8.47;;;6.37;;
13040;SDS011;6587;42.728;23.288;2023-05-19T13:52:28;12.93;;;6.80;;
13040;SDS011;6587;42.728;23.288;2023-05-19T13:54:55;9.57;;;6.60;;
13040;SDS011;6587;42.728;23.288;2023-05-19T13:57:22;9.57;;;6.87;;
13040;SDS011;6587;42.728;23.288;2023-05-19T13:59:49;11.23;;;7.50;;
13040;SDS011;6587;42.728;23.288;2023-05-19T14:02:16;10.07;;;7.20;;
13040;SDS011;6587;42.728;23.288;2023-05-19T14:04:45;10.90;;;7.17;;
13040;SDS011;6587;42.728;23.288;2023-05-19T14:07:11;11.50;;;7.10;;
13040;SDS011;6587;42.728;23.288;2023-05-19T14:09:38;9.87;;;7.17;;
13040;SDS011;6587;42.728;23.288;2023-05-19T14:12:05;10.17;;;6.97;;
13040;SDS011;6587;42.728;23.288;2023-05-19T14:14:31;11.20;;;7.50;;
13040;SDS011;6587;42.728;23.288;2023-05-19T14:16:58;14.90;;;7.60;;
13040;SDS011;6587;42.728;23.288;2023-05-19T14:19:24;11.17;;;7.13;;
13040;SDS011;6587;42.728;23.288;2023-05-19T14:21:55;10.17;;;7.27;;
13040;SDS011;6587;42.728;23.288;2023-05-19T14:24:22;12.00;;;7.63;;
13040;SDS011;6587;42.728;23.288;2023-05-19T14:26:48;10.18;;;6.97;;
13040;SDS011;6587;42.728;23.288;2023-05-19T14:29:15;9.13;;;7.10;;
13040;SDS011;6587;42.728;23.288;2023-05-19T14:31:41;10.75;;;7.47;;
13040;SDS011;6587;42.728;23.288;2023-05-19T14:34:08;11.82;;;7.43;;
13040;SDS011;6587;42.728;23.288;2023-05-19T14:36:35;10.95;;;7.70;;
13040;SDS011;6587;42.728;23.288;2023-05-19T14:39:03;10.32;;;7.45;;
13040;SDS011;6587;42.728;23.288;2023-05-19T14:41:29;10.75;;;7.22;;